createdAt,value
2019-06-07T00:01:51.228Z,100513.05
2019-06-07T00:04:23.111Z,100519.00
2019-06-07T00:06:55.130Z,100508.99
2019-06-07T00:09:27.480Z,100517.69
2019-06-07T00:11:59.607Z,100514.05
2019-06-07T00:14:31.671Z,100514.15
2019-06-07T00:17:04.216Z,100510.30
2019-06-07T00:19:36.437Z,100510.64
2019-06-07T00:22:18.388Z,100507.00
2019-06-07T00:24:46.252Z,100513.73
2019-06-07T00:27:22.311Z,100508.69
2019-06-07T00:29:52.721Z,100507.67
2019-06-07T00:32:24.674Z,100507.47
2019-06-07T00:34:56.618Z,100510.02
2019-06-07T00:37:29.235Z,100505.83
2019-06-07T00:40:14.122Z,100510.63
2019-06-07T00:42:35.300Z,100506.41
2019-06-07T00:45:07.523Z,100505.01
2019-06-07T00:47:39.580Z,100498.78
2019-06-07T00:50:11.596Z,100499.73
2019-06-07T00:53:13.725Z,100494.31
2019-06-07T00:55:19.586Z,100495.50
2019-06-07T00:57:50.904Z,100499.20
2019-06-07T01:00:25.562Z,100495.56
2019-06-07T01:02:57.496Z,100501.55
2019-06-07T01:05:31.620Z,100501.31
2019-06-07T01:08:04.424Z,100500.52
2019-06-07T01:10:52.997Z,100498.10
2019-06-07T01:13:11.157Z,100498.69
2019-06-07T01:15:43.019Z,100496.88
2019-06-07T01:20:48.891Z,100490.44
2019-06-07T01:23:59.863Z,100493.55
2019-06-07T01:25:54.360Z,100494.06
2019-06-07T01:28:27.080Z,100493.94
2019-06-07T01:31:00.111Z,100497.27
2019-06-07T01:33:50.273Z,100495.41
2019-06-07T01:36:05.976Z,100500.33
2019-06-07T01:38:38.052Z,100508.86
2019-06-07T01:41:11.253Z,100510.78
2019-06-07T01:43:43.278Z,100515.28
2019-06-07T01:46:15.783Z,100515.81
2019-06-07T01:48:49.737Z,100522.86
2019-06-07T01:51:22.096Z,100524.81
2019-06-07T01:54:41.255Z,100528.33
2019-06-07T01:56:29.930Z,100531.44
2019-06-07T01:59:02.013Z,100533.35
2019-06-07T02:01:35.304Z,100529.91
2019-06-07T02:04:07.698Z,100534.23
2019-06-07T02:06:39.631Z,100537.60
2019-06-07T02:09:13.807Z,100536.21
2019-06-07T02:11:46.630Z,100542.97
2019-06-07T02:14:19.617Z,100540.70
2019-06-07T02:16:51.670Z,100533.31
2019-06-07T02:19:24.311Z,100528.47
2019-06-07T02:21:56.592Z,100528.47
2019-06-07T02:24:31.756Z,100528.27
2019-06-07T02:27:02.346Z,100536.41
2019-06-07T02:29:34.392Z,100544.28
2019-06-07T02:32:06.509Z,100545.67
2019-06-07T02:34:39.718Z,100539.98
2019-06-07T02:37:12.401Z,100537.20
2019-06-07T02:39:44.575Z,100538.02
2019-06-07T02:42:16.554Z,100537.65
2019-06-07T02:44:48.769Z,100546.80
2019-06-07T02:47:22.613Z,100550.97
2019-06-07T02:49:54.910Z,100553.19
2019-06-07T02:52:29.332Z,100546.80
2019-06-07T02:55:00.786Z,100539.62
2019-06-07T02:57:37.013Z,100537.05
2019-06-07T03:00:40.386Z,100540.48
2019-06-07T03:02:43.047Z,100535.58
2019-06-07T03:05:15.330Z,100529.03
2019-06-07T03:07:47.497Z,100531.91
2019-06-07T03:10:19.603Z,100530.56
2019-06-07T03:12:51.859Z,100534.44
2019-06-07T03:15:37.404Z,100537.88
2019-06-07T03:18:02.699Z,100537.36
2019-06-07T03:20:36.760Z,100543.35
2019-06-07T03:23:08.331Z,100545.41
2019-06-07T03:25:40.319Z,100540.25
2019-06-07T03:28:13.253Z,100545.45
2019-06-07T03:31:01.033Z,100546.27
2019-06-07T03:33:18.815Z,100541.69
2019-06-07T03:35:51.054Z,100540.30
2019-06-07T03:38:23.495Z,100535.59
2019-06-07T03:40:55.567Z,100532.44
2019-06-07T03:43:29.828Z,100535.43
2019-06-07T03:46:01.210Z,100531.25
2019-06-07T03:48:37.829Z,100541.45
2019-06-07T03:51:24.149Z,100544.03
2019-06-07T03:53:41.045Z,100543.27
2019-06-07T03:56:14.076Z,100537.69
2019-06-07T03:58:50.243Z,100540.61
2019-06-07T04:01:20.363Z,100537.50
2019-06-07T04:03:52.485Z,100538.57
2019-06-07T04:06:25.002Z,100529.67
2019-06-07T04:08:57.464Z,100538.19
2019-06-07T04:11:30.622Z,100540.82
2019-06-07T04:14:03.248Z,100540.86
2019-06-07T04:16:40.434Z,100535.73
2019-06-07T04:19:09.017Z,100539.95
2019-06-07T04:21:42.885Z,100535.61
2019-06-07T04:24:15.093Z,100537.86
2019-06-07T04:26:47.265Z,100536.88
2019-06-07T04:30:02.313Z,100538.93
2019-06-07T04:31:55.223Z,100527.23
2019-06-07T04:34:29.137Z,100530.50
2019-06-07T04:37:01.563Z,100534.36
2019-06-07T04:39:36.406Z,100532.25
2019-06-07T04:42:07.838Z,100534.06
2019-06-07T04:44:42.621Z,100532.94
2019-06-07T04:47:13.408Z,100536.83
2019-06-07T04:49:47.936Z,100540.51
2019-06-07T04:52:19.894Z,100540.78
2019-06-07T04:54:52.159Z,100537.88
2019-06-07T04:57:24.908Z,100535.77
2019-06-07T05:00:46.089Z,100540.02
2019-06-07T05:02:34.562Z,100540.70
2019-06-07T05:05:07.513Z,100541.14
2019-06-07T05:07:40.854Z,100540.64
2019-06-07T05:10:13.596Z,100530.31
2019-06-07T05:12:46.403Z,100527.20
2019-06-07T05:15:18.487Z,100528.68
2019-06-07T05:17:51.532Z,100523.14
2019-06-07T05:20:23.933Z,100522.61
2019-06-07T05:22:56.080Z,100523.73
2019-06-07T05:25:33.264Z,100523.95
2019-06-07T05:28:04.861Z,100530.44
2019-06-07T05:33:15.082Z,100529.55
2019-06-07T05:35:48.848Z,100528.61
2019-06-07T05:38:21.193Z,100523.67
2019-06-07T05:40:53.181Z,100527.55
2019-06-07T05:43:29.510Z,100529.41
2019-06-07T05:46:01.747Z,100530.84
2019-06-07T05:48:34.142Z,100532.95
2019-06-07T05:51:06.377Z,100533.41
2019-06-07T05:53:40.247Z,100534.44
2019-06-07T05:56:13.001Z,100532.85
2019-06-07T05:58:45.231Z,100540.10
2019-06-07T06:03:50.943Z,100547.36
2019-06-07T06:06:23.021Z,100546.78
2019-06-07T06:09:12.968Z,100551.81
2019-06-07T06:11:45.815Z,100549.44
2019-06-07T06:14:08.001Z,100550.71
2019-06-07T06:16:37.239Z,100550.09
2019-06-07T06:19:09.540Z,100556.13
2019-06-07T06:21:46.050Z,100549.55
2019-06-07T06:24:15.541Z,100557.38
2019-06-07T06:26:52.264Z,100557.99
2019-06-07T06:29:21.643Z,100556.40
2019-06-07T06:32:39.444Z,100559.63
2019-06-07T06:34:27.826Z,100561.02
2019-06-07T06:37:00.508Z,100558.83
2019-06-07T06:39:32.677Z,100549.23
2019-06-07T06:42:05.908Z,100552.43
2019-06-07T06:44:40.767Z,100555.27
2019-06-07T06:47:11.444Z,100557.25
2019-06-07T06:49:44.236Z,100554.25
2019-06-07T06:52:16.940Z,100561.69
2019-06-07T06:54:59.398Z,100549.25
2019-06-07T06:57:22.586Z,100553.29
2019-06-07T06:59:54.446Z,100558.49
2019-06-07T07:02:26.183Z,100548.70
2019-06-07T07:04:58.062Z,100558.89
2019-06-07T07:07:30.038Z,100550.91
2019-06-07T07:10:03.062Z,100552.30
2019-06-07T07:12:35.336Z,100547.87
2019-06-07T07:15:07.949Z,100544.84
2019-06-07T07:17:53.893Z,100555.89
2019-06-07T07:20:13.883Z,100557.69
2019-06-07T07:22:47.986Z,100553.84
2019-06-07T07:25:19.532Z,100555.80
2019-06-07T07:27:54.898Z,100558.18
2019-06-07T07:30:41.917Z,100560.58
2019-06-07T07:33:17.968Z,100555.92
2019-06-07T07:36:10.936Z,100552.70
2019-06-07T07:38:23.596Z,100563.56
2019-06-07T07:41:06.663Z,100552.70
2019-06-07T07:43:30.163Z,100557.73
2019-06-07T07:46:03.127Z,100552.32
2019-06-07T07:48:35.772Z,100551.10
2019-06-07T07:51:07.621Z,100555.70
2019-06-07T07:53:52.461Z,100550.70
2019-06-07T07:56:13.020Z,100547.91
2019-06-07T07:58:48.747Z,100550.13
2019-06-07T08:01:19.244Z,100554.30
2019-06-07T08:03:54.870Z,100553.89
2019-06-07T08:06:25.108Z,100553.25
2019-06-07T08:08:59.133Z,100547.44
2019-06-07T08:11:31.130Z,100545.75
2019-06-07T08:14:02.972Z,100552.97
2019-06-07T08:16:35.035Z,100553.48
2019-06-07T08:19:07.455Z,100547.38
2019-06-07T08:21:39.717Z,100556.81
2019-06-07T08:24:11.834Z,100553.93
2019-06-07T08:26:44.053Z,100553.97
2019-06-07T08:29:16.066Z,100552.70
2019-06-07T08:31:48.402Z,100559.11
2019-06-07T08:34:21.070Z,100551.41
2019-06-07T08:36:54.914Z,100547.11
2019-06-07T08:39:26.987Z,100547.65
2019-06-07T08:42:11.947Z,100551.88
2019-06-07T08:44:32.410Z,100542.20
2019-06-07T08:47:19.509Z,100542.92
2019-06-07T08:49:38.028Z,100534.02
2019-06-07T08:52:12.160Z,100533.22
2019-06-07T08:54:43.643Z,100537.39
2019-06-07T08:57:21.126Z,100533.61
2019-06-07T08:59:49.121Z,100527.73
2019-06-07T09:02:24.147Z,100532.41
2019-06-07T09:04:56.998Z,100527.53
2019-06-07T09:07:28.254Z,100526.70
2019-06-07T09:10:08.270Z,100520.72
2019-06-07T09:12:34.151Z,100519.48
2019-06-07T09:15:20.971Z,100530.84
2019-06-07T09:18:29.616Z,100525.44
2019-06-07T09:20:34.988Z,100525.37
2019-06-07T09:22:48.678Z,100525.64
2019-06-07T09:25:21.827Z,100514.20
2019-06-07T09:27:54.256Z,100527.38
2019-06-07T09:30:42.970Z,100519.16
2019-06-07T09:33:14.818Z,100511.97
2019-06-07T09:35:46.869Z,100520.28
2019-06-07T09:38:25.633Z,100514.12
2019-06-07T09:40:52.254Z,100517.98
2019-06-07T09:44:00.616Z,100508.95
2019-06-07T09:45:58.867Z,100506.54
2019-06-07T09:51:09.536Z,100501.11
2019-06-07T09:53:38.633Z,100511.36
2019-06-07T09:56:12.120Z,100513.56
2019-06-07T09:58:53.553Z,100507.14
2019-06-07T10:01:18.207Z,100511.14
2019-06-07T10:03:50.049Z,100512.77
2019-06-07T10:06:21.999Z,100518.17
2019-06-07T10:10:08.199Z,100521.74
2019-06-07T10:11:27.805Z,100521.13
2019-06-07T10:14:00.316Z,100516.09
2019-06-07T10:16:45.958Z,100523.94
2019-06-07T10:19:07.419Z,100515.88
2019-06-07T10:21:39.538Z,100525.53
2019-06-07T10:24:11.681Z,100525.06
2019-06-07T10:26:43.541Z,100526.53
2019-06-07T10:29:16.539Z,100528.09
2019-06-07T10:31:48.324Z,100525.34
2019-06-07T10:34:20.166Z,100520.44
2019-06-07T10:36:51.987Z,100521.31
2019-06-07T10:39:23.955Z,100529.31
2019-06-07T10:41:55.709Z,100526.00
2019-06-07T10:44:28.171Z,100523.72
2019-06-07T10:47:01.663Z,100517.02
2019-06-07T10:49:33.641Z,100513.34
2019-06-07T10:52:10.383Z,100513.21
2019-06-07T10:54:42.797Z,100507.41
2019-06-07T10:57:16.245Z,100501.31
2019-06-07T10:59:48.556Z,100493.64
2019-06-07T11:02:20.501Z,100498.73
2019-06-07T11:04:52.531Z,100483.59
2019-06-07T11:07:24.523Z,100491.97
2019-06-07T11:10:07.548Z,100487.00
2019-06-07T11:12:30.850Z,100485.08
2019-06-07T11:15:02.751Z,100486.01
2019-06-07T11:17:36.062Z,100484.99
2019-06-07T11:20:08.399Z,100491.16
2019-06-07T11:22:43.303Z,100492.93
2019-06-07T11:25:16.803Z,100487.53
2019-06-07T11:27:49.149Z,100488.52
2019-06-07T11:30:21.206Z,100491.05
2019-06-07T11:32:53.316Z,100486.64
2019-06-07T11:35:25.283Z,100492.35
2019-06-07T11:37:57.346Z,100487.81
2019-06-07T11:40:35.572Z,100485.41
2019-06-07T11:43:02.927Z,100490.30
2019-06-07T11:45:34.762Z,100486.64
2019-06-07T11:48:07.263Z,100478.89
2019-06-07T11:50:39.215Z,100478.11
2019-06-07T11:53:12.662Z,100469.95
2019-06-07T11:55:45.355Z,100461.78
2019-06-07T11:58:21.554Z,100467.87
2019-06-07T12:00:51.016Z,100468.99
2019-06-07T12:03:22.883Z,100462.59
2019-06-07T12:05:54.906Z,100468.51
2019-06-07T12:08:26.865Z,100464.72
2019-06-07T12:10:58.991Z,100473.38
2019-06-07T12:13:30.808Z,100461.66
2019-06-07T12:16:03.815Z,100467.55
2019-06-07T12:18:35.575Z,100465.22
2019-06-07T12:21:07.680Z,100460.98
2019-06-07T12:23:39.656Z,100458.09
2019-06-07T12:26:12.281Z,100452.07
2019-06-07T12:28:44.503Z,100451.88
2019-06-07T12:31:21.167Z,100446.27
2019-06-07T12:33:53.838Z,100450.77
2019-06-07T12:36:25.778Z,100439.25
2019-06-07T12:38:57.638Z,100439.88
2019-06-07T12:41:29.676Z,100438.06
2019-06-07T12:44:02.492Z,100436.04
2019-06-07T12:46:34.758Z,100432.92
2019-06-07T12:49:08.707Z,100431.37
2019-06-07T12:51:40.639Z,100428.25
2019-06-07T12:54:13.498Z,100427.21
2019-06-07T12:56:47.118Z,100419.07
2019-06-07T12:59:20.623Z,100423.86
2019-06-07T13:01:54.326Z,100413.44
2019-06-07T13:04:27.777Z,100394.91
2019-06-07T13:07:00.102Z,100394.45
2019-06-07T13:09:35.892Z,100390.42
2019-06-07T13:12:06.063Z,100394.07
2019-06-07T13:14:38.109Z,100384.95
2019-06-07T13:17:10.109Z,100380.36
2019-06-07T13:19:42.042Z,100374.88
2019-06-07T13:22:16.086Z,100377.78
2019-06-07T13:24:47.969Z,100377.80
2019-06-07T13:27:22.478Z,100377.78
2019-06-07T13:29:54.594Z,100372.58
2019-06-07T13:32:28.058Z,100378.48
2019-06-07T13:35:00.208Z,100375.66
2019-06-07T13:37:32.439Z,100375.15
2019-06-07T13:40:06.152Z,100371.41
2019-06-07T13:42:38.473Z,100374.95
2019-06-07T13:45:10.276Z,100380.27
2019-06-07T13:47:42.233Z,100380.27
2019-06-07T13:50:14.273Z,100381.86
2019-06-07T13:52:47.158Z,100380.81
2019-06-07T13:55:21.829Z,100374.97
2019-06-07T13:57:54.018Z,100373.02
2019-06-07T14:00:26.630Z,100383.63
2019-06-07T14:02:58.721Z,100370.33
2019-06-07T14:05:30.937Z,100366.50
2019-06-07T14:08:03.225Z,100372.41
2019-06-07T14:10:35.563Z,100368.40
2019-06-07T14:13:07.855Z,100375.02
2019-06-07T14:15:40.034Z,100367.57
2019-06-07T14:18:12.070Z,100365.11
2019-06-07T14:20:43.950Z,100365.02
2019-06-07T14:23:16.013Z,100357.67
2019-06-07T14:25:47.959Z,100360.58
2019-06-07T14:28:23.848Z,100354.72
2019-06-07T14:30:54.941Z,100354.55
2019-06-07T14:33:28.292Z,100349.97
2019-06-07T14:36:00.446Z,100346.16
2019-06-07T14:38:35.435Z,100345.34
2019-06-07T14:41:05.906Z,100355.23
2019-06-07T14:43:37.753Z,100389.23
2019-06-07T14:46:10.128Z,100422.94
2019-06-07T14:48:42.158Z,100442.70
2019-06-07T14:51:14.348Z,100469.48
2019-06-07T14:53:46.199Z,100446.81
2019-06-07T14:56:18.140Z,100415.61
2019-06-07T14:58:50.535Z,100407.73
2019-06-07T15:01:22.618Z,100398.38
2019-06-07T15:03:54.680Z,100407.08
2019-06-07T15:06:26.842Z,100410.30
2019-06-07T15:08:58.804Z,100403.31
2019-06-07T15:11:31.213Z,100396.34
2019-06-07T15:14:03.337Z,100399.00
2019-06-07T15:16:35.825Z,100394.47
2019-06-07T15:19:08.304Z,100405.97
2019-06-07T15:21:40.358Z,100405.61
2019-06-07T15:24:12.314Z,100400.61
2019-06-07T15:26:44.287Z,100401.02
2019-06-07T15:29:16.361Z,100405.61
2019-06-07T15:31:49.229Z,100408.19
2019-06-07T15:34:21.500Z,100414.38
2019-06-07T15:36:53.564Z,100411.70
2019-06-07T15:39:25.624Z,100419.23
2019-06-07T15:41:57.605Z,100408.94
2019-06-07T15:44:29.454Z,100402.27
2019-06-07T15:47:01.626Z,100406.64
2019-06-07T15:49:34.164Z,100408.56
2019-06-07T15:52:06.061Z,100406.30
2019-06-07T15:54:38.502Z,100398.38
2019-06-07T15:57:10.492Z,100396.87
2019-06-07T15:59:42.657Z,100400.04
2019-06-07T16:02:14.925Z,100390.73
2019-06-07T16:04:46.894Z,100386.41
2019-06-07T16:07:19.159Z,100386.36
2019-06-07T16:09:51.431Z,100391.16
2019-06-07T16:12:23.295Z,100387.16
2019-06-07T16:14:55.559Z,100385.13
2019-06-07T16:17:27.931Z,100383.36
2019-06-07T16:19:59.995Z,100385.01
2019-06-07T16:22:33.429Z,100381.06
2019-06-07T16:25:06.890Z,100385.55
2019-06-07T16:27:40.464Z,100382.77
2019-06-07T16:30:13.021Z,100377.59
2019-06-07T16:32:46.316Z,100381.68
2019-06-07T16:35:18.699Z,100385.72
2019-06-07T16:37:52.358Z,100395.38
2019-06-07T16:40:24.605Z,100403.63
2019-06-07T16:42:56.988Z,100398.68
2019-06-07T16:45:29.250Z,100400.53
2019-06-07T16:48:01.095Z,100401.54
2019-06-07T16:50:33.377Z,100410.61
2019-06-07T16:53:05.703Z,100406.42
2019-06-07T16:55:38.809Z,100409.83
2019-06-07T16:58:10.707Z,100415.45
2019-06-07T17:00:44.172Z,100423.11
2019-06-07T17:03:16.388Z,100424.33
2019-06-07T17:05:50.443Z,100425.36
2019-06-07T17:08:21.895Z,100420.18
2019-06-07T17:10:53.843Z,100422.80
2019-06-07T17:13:33.382Z,100423.61
2019-06-07T17:15:59.263Z,100424.05
2019-06-07T17:18:31.360Z,100420.67
2019-06-07T17:21:03.255Z,100428.73
2019-06-07T17:23:35.102Z,100424.35
2019-06-07T17:26:07.042Z,100429.78
2019-06-07T17:28:39.663Z,100431.62
2019-06-07T17:31:12.199Z,100430.45
2019-06-07T17:33:44.205Z,100432.69
2019-06-07T17:36:16.179Z,100434.73
2019-06-07T17:38:48.636Z,100438.53
2019-06-07T17:41:20.607Z,100437.13
2019-06-07T17:43:59.701Z,100439.74
2019-06-07T17:46:26.699Z,100437.34
2019-06-07T17:48:58.661Z,100435.73
2019-06-07T17:51:32.073Z,100446.37
2019-06-07T17:54:04.224Z,100446.39
2019-06-07T17:56:38.233Z,100449.38
2019-06-07T17:59:10.107Z,100444.58
2019-06-07T18:01:51.891Z,100454.23
2019-06-07T18:04:15.658Z,100453.25
2019-06-07T18:06:47.690Z,100451.63
2019-06-07T18:09:19.830Z,100457.85
2019-06-07T18:11:52.602Z,100461.09
2019-06-07T18:14:24.630Z,100463.67
2019-06-07T18:16:56.570Z,100463.09
2019-06-07T18:19:28.701Z,100471.11
2019-06-07T18:22:01.621Z,100471.50
2019-06-07T18:24:34.645Z,100470.69
2019-06-07T18:27:07.307Z,100476.30
2019-06-07T18:29:42.391Z,100473.50
2019-06-07T18:32:14.299Z,100479.51
2019-06-07T18:34:46.791Z,100489.95
2019-06-07T18:37:19.861Z,100492.34
2019-06-07T18:39:53.094Z,100493.36
2019-06-07T18:42:25.154Z,100490.95
2019-06-07T18:44:57.172Z,100482.94
2019-06-07T18:47:29.265Z,100489.56
2019-06-07T18:50:01.356Z,100495.38
2019-06-07T18:52:35.058Z,100489.97
2019-06-07T18:55:12.809Z,100491.15
2019-06-07T18:57:45.503Z,100492.16
2019-06-07T19:00:20.804Z,100495.37
2019-06-07T19:02:54.020Z,100494.98
2019-06-07T19:05:28.643Z,100491.18
2019-06-07T19:08:02.102Z,100496.55
2019-06-07T19:10:34.056Z,100490.12
2019-06-07T19:13:06.053Z,100499.95
2019-06-07T19:15:38.088Z,100507.55
2019-06-07T19:18:10.082Z,100507.56
2019-06-07T19:20:44.417Z,100506.16
2019-06-07T19:23:16.656Z,100501.14
2019-06-07T19:25:50.158Z,100507.13
2019-06-07T19:28:22.438Z,100506.73
2019-06-07T19:30:54.994Z,100504.52
2019-06-07T19:33:27.080Z,100507.52
2019-06-07T19:35:59.545Z,100503.32
2019-06-07T19:38:31.624Z,100512.32
2019-06-07T19:41:18.382Z,100508.70
2019-06-07T19:43:37.394Z,100517.90
2019-06-07T19:46:09.367Z,100517.08
2019-06-07T19:48:44.078Z,100514.86
2019-06-07T19:51:20.082Z,100516.85
2019-06-07T19:53:50.298Z,100518.84
2019-06-07T19:56:22.296Z,100515.81
2019-06-07T19:58:55.527Z,100523.39
2019-06-07T20:01:27.827Z,100519.97
2019-06-07T20:04:00.020Z,100522.58
2019-06-07T20:06:32.556Z,100512.14
2019-06-07T20:09:06.689Z,100519.73
2019-06-07T20:11:38.549Z,100518.91
2019-06-07T20:14:10.424Z,100526.92
2019-06-07T20:16:42.477Z,100522.71
2019-06-07T20:19:14.599Z,100526.48
2019-06-07T20:21:46.547Z,100526.67
2019-06-07T20:24:26.961Z,100531.66
2019-06-07T20:26:52.772Z,100533.86
2019-06-07T20:29:26.438Z,100530.62
2019-06-07T20:31:58.533Z,100526.80
2019-06-07T20:34:30.336Z,100528.78
2019-06-07T20:37:05.141Z,100529.78
2019-06-07T20:39:36.384Z,100524.38
2019-06-07T20:42:08.153Z,100524.76
2019-06-07T20:44:40.084Z,100521.53
2019-06-07T20:47:12.152Z,100522.53
2019-06-07T20:49:44.010Z,100522.33
2019-06-07T20:52:15.946Z,100521.12
2019-06-07T20:54:47.804Z,100523.26
2019-06-07T20:57:19.878Z,100517.84
2019-06-07T20:59:51.900Z,100510.27
2019-06-07T21:02:24.002Z,100512.05
2019-06-07T21:04:55.863Z,100510.42
2019-06-07T21:07:27.645Z,100515.23
2019-06-07T21:09:59.700Z,100515.62
2019-06-07T21:12:31.721Z,100514.41
2019-06-07T21:15:12.856Z,100514.59
2019-06-07T21:17:42.611Z,100508.16
2019-06-07T21:20:14.728Z,100511.73
2019-06-07T21:22:47.027Z,100509.73
2019-06-07T21:25:18.978Z,100504.91
2019-06-07T21:27:50.898Z,100505.09
2019-06-07T21:30:23.748Z,100507.07
2019-06-07T21:32:55.864Z,100506.44
2019-06-07T21:35:27.913Z,100497.45
2019-06-07T21:38:00.002Z,100498.41
2019-06-07T21:40:32.159Z,100509.20
2019-06-07T21:43:04.341Z,100502.01
2019-06-07T21:45:36.271Z,100503.59
2019-06-07T21:48:08.830Z,100514.78
2019-06-07T21:50:41.087Z,100511.17
2019-06-07T21:53:13.327Z,100513.77
2019-06-07T21:55:45.317Z,100511.16
2019-06-07T21:58:17.272Z,100511.53
2019-06-07T22:01:01.530Z,100515.53
2019-06-07T22:03:33.963Z,100514.52
2019-06-07T22:06:06.303Z,100517.49
2019-06-07T22:08:40.187Z,100513.68
2019-06-07T22:11:12.487Z,100518.66
2019-06-07T22:13:44.362Z,100513.06
2019-06-07T22:16:26.260Z,100517.49
2019-06-07T22:18:50.441Z,100513.68
2019-06-07T22:21:22.368Z,100518.25
2019-06-07T22:23:54.364Z,100510.05
2019-06-07T22:26:26.369Z,100509.03
2019-06-07T22:28:58.577Z,100509.41
2019-06-07T22:31:31.170Z,100506.80
2019-06-07T22:34:03.729Z,100513.97
2019-06-07T22:36:35.934Z,100515.34
2019-06-07T22:39:09.630Z,100506.28
2019-06-07T22:41:42.756Z,100508.68
2019-06-07T22:44:14.970Z,100500.04
2019-06-07T22:46:47.763Z,100497.62
2019-06-07T22:49:19.768Z,100500.77
2019-06-07T22:51:51.601Z,100494.14
2019-06-07T22:54:23.583Z,100490.33
2019-06-07T22:57:00.102Z,100489.55
2019-06-07T22:59:31.933Z,100496.91
2019-06-07T23:02:04.009Z,100499.09
2019-06-07T23:04:35.787Z,100489.69
2019-06-07T23:07:08.868Z,100495.08
2019-06-07T23:09:41.753Z,100495.69
2019-06-07T23:12:13.754Z,100501.05
2019-06-07T23:14:45.861Z,100502.24
2019-06-07T23:17:18.355Z,100499.25
2019-06-07T23:19:51.322Z,100505.04
2019-06-07T23:22:23.181Z,100502.24
2019-06-07T23:24:55.061Z,100506.64
2019-06-07T23:27:26.860Z,100507.84
2019-06-07T23:29:58.924Z,100504.25
2019-06-07T23:32:30.809Z,100505.22
2019-06-07T23:35:03.156Z,100505.83
2019-06-07T23:37:37.290Z,100507.23
2019-06-07T23:40:09.126Z,100512.81
2019-06-07T23:42:40.990Z,100513.40
2019-06-07T23:45:13.756Z,100512.20
2019-06-07T23:47:45.815Z,100515.81
2019-06-07T23:50:17.734Z,100511.63
2019-06-07T23:52:49.501Z,100515.00
2019-06-07T23:55:22.303Z,100505.83
2019-06-07T23:57:55.545Z,100501.40
